createdAt,value
2018-05-06T05:55:34.838Z,91.28
2018-05-06T05:56:35.239Z,92.80
2018-05-06T05:58:28.195Z,98.02
2018-05-06T05:59:27.714Z,99.99
2018-05-06T06:01:21.188Z,96.50
2018-05-06T06:02:20.635Z,97.64
2018-05-06T06:04:15.643Z,98.26
2018-05-06T06:05:15.175Z,98.07
2018-05-06T06:07:08.543Z,97.22
2018-05-06T06:08:08.114Z,98.07
2018-05-06T06:11:01.851Z,99.99
2018-05-06T06:12:54.513Z,99.16
2018-05-06T06:13:54.027Z,98.50
2018-05-06T06:15:47.471Z,99.99
2018-05-06T06:16:47.041Z,99.99
2018-05-06T06:18:40.506Z,99.99
2018-05-06T06:19:40.051Z,99.99
2018-05-06T06:21:33.413Z,99.99
2018-05-06T06:22:32.924Z,99.99
2018-05-06T06:24:26.430Z,99.99
2018-05-06T06:25:25.956Z,99.99
2018-05-06T06:27:20.824Z,99.99
2018-05-06T06:28:20.879Z,99.99
2018-05-06T06:30:13.924Z,99.99
2018-05-06T06:31:14.249Z,99.99
2018-05-06T06:33:06.735Z,97.17
2018-05-06T06:34:06.284Z,99.99
2018-05-06T06:36:00.234Z,99.13
2018-05-06T06:36:59.730Z,99.99
2018-05-06T06:38:52.682Z,99.99
2018-05-06T06:39:52.664Z,99.99
2018-05-06T06:41:48.265Z,94.60
2018-05-06T06:44:41.703Z,99.99
2018-05-06T06:45:40.748Z,99.99
2018-05-06T06:47:34.231Z,99.99
2018-05-06T06:48:34.696Z,99.99
2018-05-06T06:50:27.733Z,87.12
2018-05-06T06:51:26.772Z,83.81
2018-05-06T06:53:21.746Z,75.40
2018-05-06T06:54:21.282Z,78.64
2018-05-06T06:56:16.397Z,72.74
2018-05-06T06:57:16.819Z,71.98
2018-05-06T06:59:09.308Z,66.84
2018-05-06T07:00:08.856Z,64.31
2018-05-06T07:02:02.419Z,63.64
2018-05-06T07:03:01.955Z,60.78
2018-05-06T07:04:56.040Z,62.09
2018-05-06T07:05:55.992Z,58.67
2018-05-06T07:07:51.032Z,57.31
2018-05-06T07:08:50.494Z,55.13
2018-05-06T07:10:43.618Z,56.03
2018-05-06T07:11:44.058Z,54.68
2018-05-06T07:13:36.703Z,54.66
2018-05-06T07:14:36.663Z,53.96
2018-05-06T07:16:30.237Z,54.74
2018-05-06T07:17:29.313Z,54.16
2018-05-06T07:19:23.286Z,53.33
2018-05-06T07:20:22.352Z,54.22
2018-05-06T07:22:16.600Z,55.87
2018-05-06T07:23:16.243Z,52.99
2018-05-06T07:25:09.348Z,55.98
2018-05-06T07:26:09.834Z,55.74
2018-05-06T07:28:05.441Z,51.77
2018-05-06T07:29:05.423Z,50.30
2018-05-06T07:31:00.022Z,50.23
2018-05-06T07:31:59.984Z,48.64
2018-05-06T07:33:53.394Z,51.36
2018-05-06T07:36:46.594Z,48.39
2018-05-06T07:37:46.631Z,45.76
2018-05-06T07:39:51.972Z,51.17
2018-05-06T07:40:51.796Z,50.76
2018-05-06T07:42:45.447Z,50.59
2018-05-06T07:43:44.884Z,50.59
2018-05-06T07:45:38.057Z,51.35
2018-05-06T07:46:37.540Z,51.05
2018-05-06T07:48:31.019Z,51.39
2018-05-06T07:49:30.593Z,49.73
2018-05-06T07:51:24.119Z,48.79
2018-05-06T07:52:24.083Z,48.69
2018-05-06T07:54:17.326Z,49.77
2018-05-06T07:55:16.758Z,49.12
2018-05-06T07:57:11.171Z,49.89
2018-05-06T07:58:09.990Z,52.11
2018-05-06T08:00:03.453Z,49.94
2018-05-06T08:01:03.628Z,51.46
2018-05-06T08:02:57.117Z,49.24
2018-05-06T08:03:57.282Z,47.50
2018-05-06T08:06:02.298Z,50.21
2018-05-06T08:07:02.282Z,48.25
2018-05-06T08:08:55.345Z,50.50
2018-05-06T08:09:55.292Z,49.37
2018-05-06T08:11:48.374Z,46.81
2018-05-06T08:12:47.970Z,48.90
2018-05-06T08:14:41.546Z,45.36
2018-05-06T08:15:41.021Z,48.42
2018-05-06T08:17:35.945Z,47.65
2018-05-06T08:18:35.465Z,46.59
2018-05-06T08:20:29.937Z,48.66
2018-05-06T08:21:28.938Z,49.63
2018-05-06T08:23:23.997Z,48.35
2018-05-06T08:24:23.552Z,48.37
2018-05-06T08:26:17.072Z,45.24
2018-05-06T08:27:16.638Z,47.29
2018-05-06T08:29:10.058Z,48.49
2018-05-06T08:30:09.685Z,49.43
2018-05-06T08:32:03.233Z,51.99
2018-05-06T08:33:03.149Z,49.46
2018-05-06T08:34:56.569Z,49.05
2018-05-06T08:35:56.221Z,49.91
2018-05-06T08:37:51.095Z,48.49
2018-05-06T08:38:50.673Z,49.55
2018-05-06T08:40:44.101Z,51.68
2018-05-06T08:41:44.152Z,48.44
2018-05-06T08:43:37.256Z,48.08
2018-05-06T08:44:36.803Z,46.81
2018-05-06T08:46:30.292Z,46.78
2018-05-06T08:47:30.246Z,49.46
2018-05-06T08:49:23.348Z,48.95
2018-05-06T08:50:23.325Z,47.60
2018-05-06T08:52:16.391Z,51.53
2018-05-06T08:53:15.983Z,49.68
2018-05-06T08:55:09.552Z,50.95
2018-05-06T08:56:09.358Z,51.29
2018-05-06T08:58:02.560Z,49.80
2018-05-06T08:59:02.104Z,48.49
2018-05-06T09:00:55.562Z,49.55
2018-05-06T09:01:55.160Z,48.44
2018-05-06T09:03:48.638Z,48.47
2018-05-06T09:04:48.204Z,49.32
2018-05-06T09:06:41.755Z,49.95
2018-05-06T09:07:41.271Z,49.90
2018-05-06T09:09:34.738Z,48.61
2018-05-06T09:10:34.752Z,48.66
2018-05-06T09:12:27.890Z,48.59
2018-05-06T09:13:27.859Z,48.39
2018-05-06T09:15:20.847Z,49.92
2018-05-06T09:16:20.721Z,48.42
2018-05-06T09:18:13.953Z,49.41
2018-05-06T09:19:13.824Z,49.95
2018-05-06T09:21:07.989Z,46.90
2018-05-06T09:22:07.389Z,47.34
2018-05-06T09:24:00.557Z,50.40
2018-05-06T09:25:00.082Z,48.47
2018-05-06T09:26:54.977Z,48.37
2018-05-06T09:27:54.926Z,47.22
2018-05-06T09:29:48.079Z,47.99
2018-05-06T09:30:48.081Z,48.57
2018-05-06T09:32:41.148Z,49.48
2018-05-06T09:33:41.134Z,48.74
2018-05-06T09:35:34.214Z,47.70
2018-05-06T09:36:33.733Z,47.22
2018-05-06T09:38:27.214Z,47.87
2018-05-06T09:39:26.839Z,47.67
2018-05-06T09:41:20.832Z,47.63
2018-05-06T09:42:20.741Z,48.47
2018-05-06T09:44:13.852Z,49.68
2018-05-06T09:45:13.860Z,50.40
2018-05-06T09:47:06.952Z,48.64
2018-05-06T09:48:06.576Z,49.58
2018-05-06T09:50:00.018Z,49.37
2018-05-06T09:50:59.885Z,49.34
2018-05-06T09:52:53.016Z,51.22
2018-05-06T09:53:52.604Z,50.35
2018-05-06T09:55:45.994Z,49.85
2018-05-06T09:56:45.576Z,48.37
2018-05-06T09:58:39.003Z,51.29
2018-05-06T09:59:38.905Z,47.34
2018-05-06T10:01:31.994Z,49.00
2018-05-06T10:02:32.010Z,48.13
2018-05-06T10:04:25.121Z,49.65
2018-05-06T10:05:24.634Z,51.36
2018-05-06T10:07:18.110Z,52.09
2018-05-06T10:08:17.665Z,51.34
2018-05-06T10:10:11.083Z,49.44
2018-05-06T10:11:10.641Z,49.80
2018-05-06T10:13:16.360Z,49.48
2018-05-06T10:14:15.873Z,51.34
2018-05-06T10:16:09.457Z,51.31
2018-05-06T10:17:08.968Z,52.81
2018-05-06T10:19:02.422Z,54.53
2018-05-06T10:20:02.366Z,52.17
2018-05-06T10:21:55.559Z,51.07
2018-05-06T10:22:55.029Z,50.01
2018-05-06T10:24:48.472Z,51.87
2018-05-06T10:25:48.548Z,52.69
2018-05-06T10:27:41.687Z,51.27
2018-05-06T10:28:41.202Z,53.23
2018-05-06T10:30:34.656Z,51.56
2018-05-06T10:31:34.218Z,49.39
2018-05-06T10:33:27.715Z,51.41
2018-05-06T10:34:27.268Z,50.57
2018-05-06T10:36:22.201Z,49.37
2018-05-06T10:37:22.195Z,47.63
2018-05-06T10:39:15.295Z,48.39
2018-05-06T10:40:14.792Z,50.07
2018-05-06T10:42:08.286Z,48.71
2018-05-06T10:43:07.922Z,51.25
2018-05-06T10:45:01.331Z,48.86
2018-05-06T10:46:00.933Z,49.77
2018-05-06T10:47:54.283Z,51.48
2018-05-06T10:48:53.912Z,53.25
2018-05-06T10:50:47.434Z,53.69
2018-05-06T10:51:47.303Z,52.72
2018-05-06T10:53:40.464Z,52.62
2018-05-06T10:54:39.983Z,51.39
2018-05-06T10:56:33.417Z,48.03
2018-05-06T10:57:33.744Z,53.59
2018-05-06T10:59:26.425Z,51.56
2018-05-06T11:00:26.072Z,51.07
2018-05-06T11:02:19.534Z,48.21
2018-05-06T11:03:19.366Z,48.08
2018-05-06T11:05:13.472Z,49.65
2018-05-06T11:06:12.605Z,52.01
2018-05-06T11:08:07.590Z,49.05
2018-05-06T11:09:07.573Z,48.76
2018-05-06T11:11:00.504Z,52.26
2018-05-06T11:12:00.079Z,50.04
2018-05-06T11:13:53.997Z,49.49
2018-05-06T11:14:53.619Z,48.13
2018-05-06T11:16:47.504Z,47.17
2018-05-06T11:17:47.167Z,51.41
2018-05-06T11:19:40.543Z,49.41
2018-05-06T11:20:40.100Z,49.41
2018-05-06T11:22:35.150Z,51.92
2018-05-06T11:23:34.742Z,49.22
2018-05-06T11:25:28.626Z,52.19
2018-05-06T11:26:28.160Z,52.43
2018-05-06T11:28:21.595Z,50.40
2018-05-06T11:29:21.271Z,49.48
2018-05-06T11:31:14.698Z,49.90
2018-05-06T11:32:14.319Z,51.37
2018-05-06T11:34:09.252Z,48.33
2018-05-06T11:35:08.852Z,50.47
2018-05-06T11:37:02.365Z,51.34
2018-05-06T11:38:01.895Z,50.47
2018-05-06T11:39:55.818Z,50.06
2018-05-06T11:40:55.420Z,49.87
2018-05-06T11:42:48.908Z,49.68
2018-05-06T11:43:48.432Z,51.15
2018-05-06T11:45:43.367Z,53.23
2018-05-06T11:46:42.929Z,53.64
2018-05-06T11:48:36.433Z,52.36
2018-05-06T11:49:36.012Z,52.75
2018-05-06T11:51:29.474Z,50.04
2018-05-06T11:52:29.082Z,50.89
2018-05-06T11:54:22.919Z,51.73
2018-05-06T11:55:22.867Z,49.87
2018-05-06T11:57:17.787Z,53.66
2018-05-06T11:58:17.775Z,50.54
2018-05-06T12:00:10.556Z,53.78
2018-05-06T12:01:10.054Z,53.11
2018-05-06T12:03:03.497Z,54.14
2018-05-06T12:04:03.444Z,51.15
2018-05-06T12:05:56.620Z,50.23
2018-05-06T12:06:56.155Z,50.35
2018-05-06T12:08:50.033Z,53.05
2018-05-06T12:09:49.654Z,51.63
2018-05-06T12:11:43.149Z,48.71
2018-05-06T12:12:43.061Z,51.92
2018-05-06T12:14:36.681Z,53.88
2018-05-06T12:15:36.273Z,52.72
2018-05-06T12:17:29.891Z,54.72
2018-05-06T12:18:29.372Z,51.07
2018-05-06T12:20:22.799Z,55.13
2018-05-06T12:21:22.730Z,51.75
2018-05-06T12:23:15.873Z,50.50
2018-05-06T12:24:15.472Z,49.90
2018-05-06T12:26:08.910Z,52.01
2018-05-06T12:27:08.895Z,51.44
2018-05-06T12:29:02.545Z,50.57
2018-05-06T12:30:02.034Z,49.80
2018-05-06T12:31:56.980Z,50.42
2018-05-06T12:32:56.563Z,52.28
2018-05-06T12:34:50.084Z,50.11
2018-05-06T12:35:49.931Z,51.39
2018-05-06T12:37:43.092Z,54.75
2018-05-06T12:38:43.061Z,50.89
2018-05-06T12:40:36.184Z,53.30
2018-05-06T12:41:35.712Z,49.90
2018-05-06T12:43:29.225Z,53.44
2018-05-06T12:44:29.155Z,57.84
2018-05-06T12:46:22.282Z,51.65
2018-05-06T12:47:21.866Z,53.97
2018-05-06T12:49:15.291Z,51.25
2018-05-06T12:50:15.313Z,51.70
2018-05-06T12:52:08.919Z,52.47
2018-05-06T12:53:07.933Z,51.17
2018-05-06T12:55:01.403Z,56.14
2018-05-06T12:56:01.038Z,55.68
2018-05-06T12:58:54.077Z,51.75
2018-05-06T13:00:47.517Z,49.39
2018-05-06T13:01:47.489Z,50.06
2018-05-06T13:03:40.672Z,50.38
2018-05-06T13:04:40.183Z,51.85
2018-05-06T13:06:34.136Z,50.64
2018-05-06T13:07:33.746Z,52.76
2018-05-06T13:09:28.796Z,54.14
2018-05-06T13:10:28.334Z,53.88
2018-05-06T13:12:22.360Z,51.44
2018-05-06T13:13:21.932Z,52.23
2018-05-06T13:15:16.931Z,52.58
2018-05-06T13:16:16.489Z,51.20
2018-05-06T13:18:10.433Z,49.41
2018-05-06T13:19:10.453Z,52.79
2018-05-06T13:21:05.125Z,51.92
2018-05-06T13:22:04.696Z,52.37
2018-05-06T13:24:12.931Z,52.64
2018-05-06T13:25:12.464Z,54.79
2018-05-06T13:27:07.583Z,51.99
2018-05-06T13:28:07.074Z,51.87
2018-05-06T13:30:01.048Z,53.13
2018-05-06T13:31:00.671Z,53.25
2018-05-06T13:32:55.671Z,54.53
2018-05-06T13:33:55.203Z,54.91
2018-05-06T13:35:49.242Z,53.75
2018-05-06T13:36:49.083Z,52.72
2018-05-06T13:38:43.819Z,49.96
2018-05-06T13:39:43.376Z,54.62
2018-05-06T13:41:37.421Z,51.92
2018-05-06T13:42:37.293Z,50.32
2018-05-06T13:44:30.458Z,51.51
2018-05-06T13:45:29.996Z,52.53
2018-05-06T13:47:25.022Z,48.71
2018-05-06T13:48:24.955Z,48.79
2018-05-06T13:50:18.727Z,50.26
2018-05-06T13:51:18.460Z,49.24
2018-05-06T13:53:11.633Z,50.06
2018-05-06T13:54:11.254Z,50.06
2018-05-06T13:56:04.704Z,50.23
2018-05-06T13:57:04.291Z,49.58
2018-05-06T13:58:57.780Z,52.21
2018-05-06T13:59:57.349Z,49.39
2018-05-06T14:01:50.879Z,49.58
2018-05-06T14:02:50.406Z,52.59
2018-05-06T14:04:44.389Z,48.25
2018-05-06T14:05:43.426Z,49.60
2018-05-06T14:07:37.471Z,49.87
2018-05-06T14:08:36.953Z,50.45
2018-05-06T14:10:30.011Z,51.32
2018-05-06T14:11:29.891Z,51.41
2018-05-06T14:13:23.603Z,49.58
2018-05-06T14:14:23.150Z,49.96
2018-05-06T14:16:16.620Z,49.29
2018-05-06T14:17:16.273Z,49.48
2018-05-06T14:19:11.212Z,48.88
2018-05-06T14:20:10.773Z,50.74
2018-05-06T14:22:04.318Z,49.58
2018-05-06T14:23:03.830Z,49.70
2018-05-06T14:24:57.313Z,49.41
2018-05-06T14:25:56.949Z,49.99
2018-05-06T14:27:50.444Z,50.40
2018-05-06T14:28:49.979Z,48.86
2018-05-06T14:30:43.467Z,48.90
2018-05-06T14:31:43.042Z,51.63
2018-05-06T14:33:36.466Z,49.32
2018-05-06T14:34:36.032Z,49.60
2018-05-06T14:36:29.455Z,49.77
2018-05-06T14:37:29.076Z,51.05
2018-05-06T14:39:22.390Z,50.11
2018-05-06T14:40:21.958Z,51.56
2018-05-06T14:42:15.476Z,52.62
2018-05-06T14:43:14.969Z,52.23
2018-05-06T14:45:08.412Z,50.28
2018-05-06T14:46:07.997Z,54.33
2018-05-06T14:48:02.028Z,49.60
2018-05-06T14:49:01.116Z,49.96
2018-05-06T14:50:54.491Z,51.03
2018-05-06T14:51:54.095Z,50.84
2018-05-06T14:53:49.021Z,50.90
2018-05-06T14:54:48.625Z,53.83
2018-05-06T14:56:42.085Z,53.95
2018-05-06T14:57:42.040Z,50.67
2018-05-06T14:59:35.161Z,51.34
2018-05-06T15:00:34.677Z,51.53
2018-05-06T15:02:28.172Z,51.05
2018-05-06T15:03:28.197Z,51.34
2018-05-06T15:05:21.281Z,52.01
2018-05-06T15:06:21.205Z,51.92
2018-05-06T15:08:14.235Z,53.34
2018-05-06T15:09:13.851Z,51.99
2018-05-06T15:11:07.408Z,49.94
2018-05-06T15:12:07.317Z,52.57
2018-05-06T15:14:00.442Z,51.70
2018-05-06T15:14:59.992Z,53.15
2018-05-06T15:16:53.443Z,51.20
2018-05-06T15:17:53.046Z,51.58
2018-05-06T15:19:46.498Z,52.25
2018-05-06T15:20:46.063Z,51.10
2018-05-06T15:22:39.591Z,51.97
2018-05-06T15:23:39.180Z,51.68
2018-05-06T15:25:32.616Z,50.42
2018-05-06T15:26:32.199Z,51.48
2018-05-06T15:28:27.195Z,50.88
2018-05-06T15:29:26.714Z,51.29
2018-05-06T15:31:20.203Z,51.70
2018-05-06T15:32:19.760Z,50.13
2018-05-06T15:34:13.807Z,51.94
2018-05-06T15:35:13.208Z,55.05
2018-05-06T15:37:06.352Z,53.00
2018-05-06T15:38:05.865Z,52.45
2018-05-06T15:39:59.390Z,53.29
2018-05-06T15:40:59.415Z,51.56
2018-05-06T15:42:52.915Z,52.64
2018-05-06T15:43:52.881Z,52.06
2018-05-06T15:45:46.577Z,52.13
2018-05-06T15:46:46.034Z,52.23
2018-05-06T15:48:39.551Z,52.33
2018-05-06T15:49:39.586Z,51.46
2018-05-06T15:51:32.606Z,52.33
2018-05-06T15:52:32.192Z,50.40
2018-05-06T15:54:25.628Z,51.14
2018-05-06T15:55:25.544Z,51.62
2018-05-06T15:57:18.769Z,53.65
2018-05-06T15:58:18.287Z,53.27
2018-05-06T16:00:12.340Z,53.74
2018-05-06T16:01:12.259Z,55.45
2018-05-06T16:03:06.785Z,54.75
2018-05-06T16:04:06.347Z,54.17
2018-05-06T16:05:59.811Z,55.62
2018-05-06T16:06:59.756Z,57.15
2018-05-06T16:08:53.473Z,59.05
2018-05-06T16:09:52.929Z,57.10
2018-05-06T16:11:46.934Z,57.68
2018-05-06T16:12:46.525Z,57.77
2018-05-06T16:14:40.640Z,59.24
2018-05-06T16:15:39.618Z,58.47
2018-05-06T16:17:33.672Z,60.66
2018-05-06T16:18:32.668Z,58.73
2018-05-06T16:20:26.192Z,58.95
2018-05-06T16:21:25.703Z,57.87
2018-05-06T16:23:19.597Z,57.68
2018-05-06T16:24:19.159Z,56.84
2018-05-06T16:26:12.237Z,55.59
2018-05-06T16:27:11.842Z,55.49
2018-05-06T16:29:05.347Z,56.29
2018-05-06T16:30:04.906Z,55.71
2018-05-06T16:31:59.411Z,55.68
2018-05-06T16:32:58.858Z,55.40
2018-05-06T16:34:53.428Z,54.60
2018-05-06T16:35:53.057Z,55.56
2018-05-06T16:37:46.486Z,57.87
2018-05-06T16:38:46.017Z,57.29
2018-05-06T16:40:40.572Z,57.58
2018-05-06T16:41:39.569Z,55.82
2018-05-06T16:43:33.133Z,56.33
2018-05-06T16:44:32.684Z,55.94
2018-05-06T16:46:27.647Z,57.26
2018-05-06T16:47:27.230Z,57.75
2018-05-06T16:49:20.792Z,58.51
2018-05-06T16:50:20.340Z,58.13
2018-05-06T16:52:14.330Z,56.01
2018-05-06T16:53:13.338Z,57.65
2018-05-06T16:55:06.866Z,58.00
2018-05-06T16:56:06.774Z,57.04
2018-05-06T16:58:00.059Z,56.21
2018-05-06T16:58:59.428Z,55.60
2018-05-06T17:00:53.020Z,55.69
2018-05-06T17:01:53.500Z,55.82
2018-05-06T17:03:47.574Z,57.62
2018-05-06T17:04:46.076Z,57.71
2018-05-06T17:06:40.116Z,58.64
2018-05-06T17:07:39.450Z,58.26
2018-05-06T17:09:34.088Z,59.80
2018-05-06T17:10:33.714Z,58.55
2018-05-06T17:12:27.151Z,56.85
2018-05-06T17:13:26.642Z,57.04
2018-05-06T17:15:20.031Z,59.61
2018-05-06T17:16:19.992Z,58.48
2018-05-06T17:18:13.076Z,58.45
2018-05-06T17:19:13.034Z,59.12
2018-05-06T17:21:06.121Z,58.64
2018-05-06T17:22:05.995Z,59.61
2018-05-06T17:23:59.025Z,59.58
2018-05-06T17:24:58.888Z,60.25
2018-05-06T17:26:52.365Z,61.21
2018-05-06T17:27:51.964Z,61.40
2018-05-06T17:29:45.441Z,62.55
2018-05-06T17:30:44.923Z,60.47
2018-05-06T17:32:38.314Z,61.40
2018-05-06T17:33:38.241Z,60.92
2018-05-06T17:35:31.310Z,62.55
2018-05-06T17:36:30.772Z,63.51
2018-05-06T17:38:24.344Z,64.82
2018-05-06T17:39:24.258Z,65.59
2018-05-06T17:41:17.282Z,65.36
2018-05-06T17:42:16.808Z,66.71
2018-05-06T17:44:10.204Z,68.05
2018-05-06T17:45:09.755Z,67.09
2018-05-06T17:47:03.271Z,65.75
2018-05-06T17:48:02.723Z,63.86
2018-05-06T17:49:56.224Z,63.48
2018-05-06T17:50:55.772Z,64.15
2018-05-06T17:52:49.297Z,66.83
2018-05-06T17:53:48.695Z,66.32
2018-05-06T17:55:43.751Z,65.84
2018-05-06T17:56:43.260Z,65.20
2018-05-06T17:58:36.695Z,65.39
2018-05-06T17:59:36.204Z,64.82
2018-05-06T18:01:30.263Z,65.17
2018-05-06T18:02:29.261Z,66.03
2018-05-06T18:04:23.263Z,66.80
2018-05-06T18:05:23.113Z,67.76
2018-05-06T18:07:16.160Z,68.40
2018-05-06T18:08:15.673Z,68.11
2018-05-06T18:10:09.603Z,69.26
2018-05-06T18:11:08.618Z,68.87
2018-05-06T18:13:02.057Z,71.08
2018-05-06T18:14:01.552Z,70.66
2018-05-06T18:15:55.048Z,70.37
2018-05-06T18:16:54.589Z,70.70
2018-05-06T18:18:47.904Z,70.28
2018-05-06T18:19:47.570Z,70.85
2018-05-06T18:21:41.031Z,71.91
2018-05-06T18:22:41.305Z,71.81
2018-05-06T18:24:34.599Z,71.97
2018-05-06T18:25:33.991Z,72.38
2018-05-06T18:27:27.495Z,72.09
2018-05-06T18:28:27.637Z,73.11
2018-05-06T18:30:20.989Z,74.74
2018-05-06T18:31:20.912Z,75.51
2018-05-06T18:33:14.109Z,77.67
2018-05-06T18:34:13.582Z,78.72
2018-05-06T18:36:07.082Z,79.29
2018-05-06T18:37:06.676Z,80.16
2018-05-06T18:39:02.119Z,82.31
2018-05-06T18:40:01.217Z,83.56
2018-05-06T18:41:54.648Z,83.56
2018-05-06T18:42:54.184Z,83.17
2018-05-06T18:44:47.790Z,84.80
2018-05-06T18:45:47.690Z,86.10
2018-05-06T18:47:40.711Z,90.88
2018-05-06T18:48:40.306Z,91.88
2018-05-06T18:50:33.802Z,95.22
2018-05-06T18:51:33.444Z,96.08
2018-05-06T18:53:26.785Z,97.03
2018-05-06T18:54:26.403Z,98.85
2018-05-06T18:57:19.584Z,99.90
2018-05-06T18:59:13.029Z,99.99
2018-05-06T19:00:12.937Z,99.99
2018-05-06T19:02:07.487Z,99.99
2018-05-06T19:03:06.988Z,99.99
2018-05-06T19:05:00.498Z,99.99
2018-05-06T19:06:00.043Z,99.99
2018-05-06T19:07:53.619Z,99.99
2018-05-06T19:08:53.536Z,99.99
2018-05-06T19:10:46.641Z,99.99
2018-05-06T19:11:46.640Z,99.99
2018-05-06T19:13:39.665Z,99.99
2018-05-06T19:14:39.582Z,99.99
2018-05-06T19:16:32.641Z,99.99
2018-05-06T19:17:32.578Z,99.99
2018-05-06T19:19:25.769Z,99.99
2018-05-06T19:20:25.700Z,99.99
2018-05-06T19:22:18.781Z,99.99
2018-05-06T19:23:18.714Z,99.99
2018-05-06T19:25:11.807Z,99.99
2018-05-06T19:26:11.435Z,99.99
2018-05-06T19:28:04.916Z,99.99
2018-05-06T19:29:04.393Z,99.99
2018-05-06T19:30:58.041Z,99.99
2018-05-06T19:31:57.472Z,99.99
2018-05-06T19:33:50.992Z,99.99
2018-05-06T19:34:50.927Z,99.99
2018-05-06T19:36:43.967Z,99.99
2018-05-06T19:37:43.579Z,99.99
2018-05-06T19:39:38.482Z,99.99
2018-05-06T19:40:37.986Z,99.99
2018-05-06T19:42:31.520Z,99.99
2018-05-06T19:43:30.927Z,99.99
2018-05-06T19:45:24.309Z,99.99
2018-05-06T19:46:23.895Z,99.99
2018-05-06T19:48:17.334Z,99.99
2018-05-06T19:49:16.796Z,99.84
2018-05-06T19:51:10.372Z,99.99
2018-05-06T19:52:10.355Z,99.99
2018-05-06T19:54:03.328Z,99.99
2018-05-06T19:55:02.849Z,99.99
2018-05-06T19:56:56.212Z,99.99
2018-05-06T19:57:55.781Z,99.99
2018-05-06T19:59:49.269Z,99.99
2018-05-06T20:00:49.136Z,97.27
2018-05-06T20:02:42.129Z,99.99
2018-05-06T20:03:41.724Z,93.46
2018-05-06T20:05:35.105Z,90.99
2018-05-06T20:06:35.092Z,88.89
2018-05-06T20:08:29.629Z,99.99
2018-05-06T20:09:29.161Z,98.93
2018-05-06T20:11:22.615Z,90.66
2018-05-06T20:12:22.518Z,84.00
2018-05-06T20:14:15.478Z,99.99
2018-05-06T20:15:15.103Z,90.66
2018-05-06T20:17:08.476Z,99.99
2018-05-06T20:18:08.050Z,97.65
2018-05-06T20:20:01.468Z,98.98
2018-05-06T20:21:00.924Z,91.08
2018-05-06T20:22:54.416Z,99.99
2018-05-06T20:23:53.921Z,99.99
2018-05-06T20:25:48.949Z,99.99
2018-05-06T20:26:49.084Z,95.12
2018-05-06T20:28:41.853Z,88.09
2018-05-06T20:29:41.375Z,91.13
2018-05-06T20:31:35.200Z,98.69
2018-05-06T20:32:34.291Z,96.03
2018-05-06T20:34:27.824Z,99.99
2018-05-06T20:35:27.236Z,99.99
2018-05-06T20:37:20.734Z,93.79
2018-05-06T20:38:20.721Z,93.37
2018-05-06T20:40:25.839Z,99.99
2018-05-06T20:41:25.332Z,99.99
2018-05-06T20:43:18.772Z,87.42
2018-05-06T20:44:18.284Z,92.65
2018-05-06T20:46:11.766Z,98.55
2018-05-06T20:47:11.645Z,89.94
2018-05-06T20:49:06.261Z,77.20
2018-05-06T20:50:06.694Z,89.47
2018-05-06T20:51:59.192Z,73.02
2018-05-06T20:52:59.182Z,71.22
2018-05-06T20:54:52.103Z,67.60
2018-05-06T20:55:51.706Z,68.93
2018-05-06T20:57:45.126Z,71.12
2018-05-06T20:58:44.632Z,66.65
2018-05-06T21:00:38.015Z,69.21
2018-05-06T21:01:38.005Z,72.45
2018-05-06T21:03:43.236Z,74.88
2018-05-06T21:04:42.717Z,71.27
2018-05-06T21:06:36.169Z,64.72
2018-05-06T21:07:35.643Z,55.43
2018-05-06T21:09:29.145Z,74.73
2018-05-06T21:10:28.694Z,76.06
2018-05-06T21:12:23.632Z,68.17
2018-05-06T21:13:23.102Z,75.11
2018-05-06T21:15:16.583Z,69.31
2018-05-06T21:16:16.507Z,79.96
2018-05-06T21:18:09.531Z,95.84
2018-05-06T21:19:09.548Z,83.06
2018-05-06T21:21:02.447Z,85.81
2018-05-06T21:22:02.001Z,76.03
2018-05-06T21:23:55.408Z,63.29
2018-05-06T21:24:54.956Z,57.68
2018-05-06T21:26:48.395Z,62.91
2018-05-06T21:27:47.985Z,67.19
2018-05-06T21:29:42.912Z,54.55
2018-05-06T21:30:42.405Z,50.74
2018-05-06T21:32:35.861Z,53.97
2018-05-06T21:33:35.319Z,54.36
2018-05-06T21:35:28.887Z,57.21
2018-05-06T21:36:28.821Z,60.44
2018-05-06T21:38:21.831Z,57.78
2018-05-06T21:39:21.801Z,59.30
2018-05-06T21:41:14.789Z,60.25
2018-05-06T21:42:14.309Z,57.50
2018-05-06T21:44:07.803Z,71.75
2018-05-06T21:45:07.670Z,75.36
2018-05-06T21:47:00.667Z,66.33
2018-05-06T21:48:00.669Z,63.39
2018-05-06T21:49:53.643Z,63.29
2018-05-06T21:50:53.198Z,64.59
2018-05-06T21:52:48.157Z,68.01
2018-05-06T21:53:47.673Z,82.07
2018-05-06T21:55:41.135Z,56.70
2018-05-06T21:56:41.038Z,51.20
2018-05-06T21:58:34.533Z,52.14
2018-05-06T21:59:33.540Z,54.33
2018-05-06T22:01:27.056Z,51.95
2018-05-06T22:02:26.555Z,54.43
2018-05-06T22:04:19.942Z,48.82
2018-05-06T22:05:19.530Z,51.76
2018-05-06T22:07:12.939Z,59.84
2018-05-06T22:08:12.458Z,60.98
2018-05-06T22:10:07.357Z,61.07
2018-05-06T22:11:06.946Z,58.98
2018-05-06T22:13:00.380Z,66.30
2018-05-06T22:13:59.923Z,70.67
2018-05-06T22:15:53.307Z,65.82
2018-05-06T22:16:52.782Z,58.20
2018-05-06T22:18:46.311Z,53.76
2018-05-06T22:19:45.778Z,52.72
2018-05-06T22:21:39.517Z,56.13
2018-05-06T22:22:39.705Z,55.57
2018-05-06T22:24:32.660Z,53.73
2018-05-06T22:25:32.493Z,53.92
2018-05-06T22:27:27.186Z,48.63
2018-05-06T22:28:27.080Z,49.68
2018-05-06T22:30:20.124Z,53.57
2018-05-06T22:31:19.150Z,52.72
2018-05-06T22:33:12.596Z,55.66
2018-05-06T22:34:12.159Z,58.10
2018-05-06T22:36:05.565Z,49.65
2018-05-06T22:37:05.486Z,51.45
2018-05-06T22:38:59.023Z,51.74
2018-05-06T22:39:58.019Z,50.22
2018-05-06T22:41:51.478Z,54.39
2018-05-06T22:42:51.042Z,50.31
2018-05-06T22:44:45.876Z,50.41
2018-05-06T22:45:45.459Z,51.26
2018-05-06T22:47:56.206Z,50.12
2018-05-06T22:48:57.050Z,51.93
2018-05-06T22:50:49.172Z,52.97
2018-05-06T22:51:49.515Z,51.83
2018-05-06T22:53:44.033Z,49.84
2018-05-06T22:54:44.403Z,49.08
2018-05-06T22:56:36.993Z,50.76
2018-05-06T22:57:36.956Z,50.10
2018-05-06T22:59:30.091Z,49.72
2018-05-06T23:00:29.481Z,49.91
2018-05-06T23:02:22.914Z,51.52
2018-05-06T23:03:22.489Z,50.01
2018-05-06T23:05:15.830Z,45.45
2018-05-06T23:06:15.418Z,44.60
2018-05-06T23:08:09.330Z,45.07
2018-05-06T23:09:08.347Z,46.40
2018-05-06T23:11:02.317Z,47.73
2018-05-06T23:12:01.317Z,48.11
2018-05-06T23:13:56.824Z,49.15
2018-05-06T23:14:55.885Z,49.53
2018-05-06T23:16:49.517Z,49.05
2018-05-06T23:17:48.789Z,49.13
2018-05-06T23:19:42.228Z,46.78
2018-05-06T23:20:41.756Z,45.36
2018-05-06T23:22:35.188Z,43.27
2018-05-06T23:23:34.727Z,42.89
2018-05-06T23:25:28.124Z,43.93
2018-05-06T23:26:27.755Z,43.74
2018-05-06T23:28:21.077Z,44.21
2018-05-06T23:29:20.716Z,44.31
2018-05-06T23:31:14.108Z,43.84
2018-05-06T23:32:14.007Z,44.31
2018-05-06T23:34:08.551Z,45.14
2018-05-06T23:35:08.991Z,45.71
2018-05-06T23:37:01.486Z,46.28
2018-05-06T23:38:01.074Z,45.05
2018-05-06T23:39:54.444Z,44.69
2018-05-06T23:40:54.397Z,44.79
2018-05-06T23:42:47.472Z,45.14
2018-05-06T23:43:47.959Z,45.62
2018-05-06T23:45:40.366Z,45.14
2018-05-06T23:46:39.951Z,44.95
2018-05-06T23:48:33.821Z,45.07
2018-05-06T23:49:32.898Z,45.52
2018-05-06T23:51:28.337Z,46.00
2018-05-06T23:52:27.329Z,46.75
2018-05-06T23:54:20.775Z,46.37
2018-05-06T23:55:20.337Z,46.66
2018-05-06T23:57:14.256Z,47.52
2018-05-06T23:58:13.717Z,47.32
